Time;durP1;ratioP1;P1;durP2;ratioP2;P2;SDS_P1;SDS_P2;PMS_P1;PMS_P2;Temp;Humidity;BMP_temperature;BMP_pressure;BME280_temperature;BME280_humidity;BME280_pressure;Samples;Min_cycle;Max_cycle;Signal;HPM_P1;HPM_P2
2022/05/27 00:01:05;;;;;;;;;;;19.40;67.00;;;;;;5047289;28;1275;-72
2022/05/27 00:03:31;;;;;;;;;;;19.40;67.00;;;;;;5047528;28;1297;-71
2022/05/27 00:05:56;;;;;;;;;;;19.40;67.00;;;;;;5031961;28;1371;-71
2022/05/27 00:08:22;;;;;;;;;;;19.40;67.00;;;;;;5031926;28;1890;-71
2022/05/27 00:10:48;;;;;;;;;;;19.40;67.00;;;;;;5051071;28;1340;-71
2022/05/27 00:13:13;;;;;;;;;;;19.40;67.00;;;;;;5050683;28;1115;-70
2022/05/27 00:15:39;;;;;;;;;;;19.40;67.00;;;;;;5034416;28;1114;-70
2022/05/27 00:18:04;;;;;;;;;;;19.40;67.00;;;;;;5038249;28;1665;-71
2022/05/27 00:20:30;;;;;;;;;;;19.40;67.00;;;;;;5035148;28;1038;-71
2022/05/27 00:22:55;;;;;;;;;;;19.40;67.00;;;;;;5035205;28;1178;-71
2022/05/27 00:25:20;;;;;;;;;;;19.40;67.00;;;;;;5035411;28;1127;-71
2022/05/27 00:27:46;;;;;;;;;;;19.40;67.00;;;;;;5046131;28;1898;-70
2022/05/27 00:30:11;;;;;;;;;;;19.40;67.00;;;;;;5033944;28;1060;-70
2022/05/27 00:32:37;;;;;;;;;;;19.40;67.00;;;;;;5034264;28;1309;-73
2022/05/27 00:35:03;;;;;;;;;;;19.40;67.00;;;;;;5035002;28;1692;-75
2022/05/27 00:37:28;;;;;;;;;;;19.40;67.00;;;;;;5050417;28;1417;-73
2022/05/27 00:39:55;;;;;;;;;;;19.40;67.00;;;;;;5035033;28;1267;-74
2022/05/27 00:42:21;;;;;;;;;;;19.40;67.00;;;;;;5035082;28;1286;-73
2022/05/27 00:44:46;;;;;;;;;;;19.40;67.00;;;;;;5050702;28;1060;-72
2022/05/27 00:47:12;;;;;;;;;;;19.40;67.00;;;;;;5033713;28;1342;-73
2022/05/27 00:49:40;;;;;;;;;;;19.40;67.00;;;;;;5050230;28;1902;-74
2022/05/27 00:52:07;;;;;;;;;;;19.40;67.00;;;;;;5033727;28;1297;-74
2022/05/27 00:54:32;;;;;;;;;;;19.40;67.00;;;;;;5033730;28;1068;-75
2022/05/27 00:56:58;;;;;;;;;;;19.40;67.00;;;;;;5033311;28;1455;-72
2022/05/27 00:59:36;;;;;;;;;;;19.40;67.00;;;;;;5033431;28;1505;-73
2022/05/27 01:02:02;;;;;;;;;;;19.40;67.00;;;;;;5034485;28;1367;-74
2022/05/27 01:04:28;;;;;;;;;;;19.40;67.00;;;;;;5033352;28;1163;-73
2022/05/27 01:06:53;;;;;;;;;;;19.40;67.00;;;;;;5033483;28;1403;-72
2022/05/27 01:09:19;;;;;;;;;;;19.40;67.00;;;;;;5034318;28;1894;-73
2022/05/27 01:11:59;;;;;;;;;;;19.40;67.00;;;;;;5049642;28;1200;-72
2022/05/27 01:14:43;;;;;;;;;;;19.40;67.00;;;;;;5034536;28;1068;-75
2022/05/27 01:17:08;;;;;;;;;;;19.40;67.00;;;;;;5020375;28;1290;-74
2022/05/27 01:22:44;;;;;;;;;;;19.40;67.00;;;;;;5013559;28;1280;-74
2022/05/27 01:25:28;;;;;;;;;;;19.40;67.10;;;;;;5034263;28;1127;-72
2022/05/27 01:28:03;;;;;;;;;;;19.40;67.00;;;;;;5045189;28;1953;-74
2022/05/27 01:30:28;;;;;;;;;;;19.40;67.10;;;;;;5034390;28;1292;-74
2022/05/27 01:32:57;;;;;;;;;;;19.40;67.10;;;;;;5034484;28;1186;-72
2022/05/27 01:35:41;;;;;;;;;;;19.40;67.10;;;;;;5034017;28;1669;-71
2022/05/27 01:38:06;;;;;;;;;;;19.40;67.10;;;;;;5033916;28;1275;-70
2022/05/27 01:40:33;;;;;;;;;;;19.40;67.10;;;;;;5033655;28;1696;-72
2022/05/27 01:43:00;;;;;;;;;;;19.40;67.10;;;;;;5049454;28;1308;-72
2022/05/27 01:45:26;;;;;;;;;;;19.40;67.10;;;;;;5049430;28;1339;-70
2022/05/27 01:47:54;;;;;;;;;;;19.40;67.10;;;;;;5062558;22;2055;-76
2022/05/27 01:50:24;;;;;;;;;;;19.40;67.10;;;;;;5072758;28;916;-77
2022/05/27 01:52:52;;;;;;;;;;;19.40;67.10;;;;;;5055775;28;1189;-77
2022/05/27 01:55:24;;;;;;;;;;;19.40;67.10;;;;;;5055526;28;3393;-76
2022/05/27 01:57:53;;;;;;;;;;;19.40;67.10;;;;;;5049307;28;1790;-76
2022/05/27 02:00:19;;;;;;;;;;;19.40;67.10;;;;;;5041544;28;1236;-76
2022/05/27 02:02:47;;;;;;;;;;;19.40;67.00;;;;;;5050195;28;1347;-77
2022/05/27 02:05:14;;;;;;;;;;;19.40;67.10;;;;;;5039382;28;1272;-76
2022/05/27 02:07:45;;;;;;;;;;;19.40;67.10;;;;;;5051935;28;1293;-76
2022/05/27 02:10:13;;;;;;;;;;;19.40;67.10;;;;;;5055617;28;1195;-77
2022/05/27 02:12:40;;;;;;;;;;;19.40;67.10;;;;;;5073396;28;1226;-77
2022/05/27 02:15:10;;;;;;;;;;;19.40;67.10;;;;;;5039090;28;1215;-77
2022/05/27 02:17:43;;;;;;;;;;;19.40;67.10;;;;;;5055347;28;1346;-77
2022/05/27 02:20:10;;;;;;;;;;;19.40;67.10;;;;;;5031935;28;1263;-77
2022/05/27 02:22:37;;;;;;;;;;;19.40;67.10;;;;;;5046839;28;1076;-76
2022/05/27 02:25:05;;;;;;;;;;;19.40;67.10;;;;;;5055446;28;1175;-77
2022/05/27 02:27:34;;;;;;;;;;;19.40;67.10;;;;;;5048380;28;1259;-77
2022/05/27 02:30:00;;;;;;;;;;;19.40;67.10;;;;;;5056518;28;1972;-77
2022/05/27 02:32:30;;;;;;;;;;;19.40;67.10;;;;;;5055004;28;1242;-77
2022/05/27 02:35:09;;;;;;;;;;;19.40;67.10;;;;;;5054800;28;1511;-77
2022/05/27 02:37:47;;;;;;;;;;;19.40;67.10;;;;;;5055071;28;1318;-77
2022/05/27 02:40:14;;;;;;;;;;;19.40;67.10;;;;;;5054890;28;1146;-77
2022/05/27 02:42:58;;;;;;;;;;;19.40;67.20;;;;;;5054937;28;1144;-77
2022/05/27 02:45:32;;;;;;;;;;;19.40;67.10;;;;;;5073294;28;1011;-76
2022/05/27 02:48:01;;;;;;;;;;;19.40;67.10;;;;;;5073174;28;1979;-76
2022/05/27 02:50:29;;;;;;;;;;;19.40;67.10;;;;;;5055277;28;826;-76
2022/05/27 02:52:58;;;;;;;;;;;19.40;67.10;;;;;;5055227;28;868;-75
2022/05/27 02:55:27;;;;;;;;;;;19.40;67.10;;;;;;5038992;28;1243;-75
2022/05/27 02:57:52;;;;;;;;;;;19.40;67.10;;;;;;5038471;28;1223;-75
2022/05/27 03:00:18;;;;;;;;;;;19.40;67.10;;;;;;5038705;28;1267;-76
2022/05/27 03:02:43;;;;;;;;;;;19.40;67.10;;;;;;5055010;28;1226;-75
2022/05/27 03:05:09;;;;;;;;;;;19.40;67.10;;;;;;5073207;28;1408;-76
2022/05/27 03:07:34;;;;;;;;;;;19.40;67.10;;;;;;5055513;28;1429;-77
2022/05/27 03:10:00;;;;;;;;;;;19.40;67.10;;;;;;5054827;28;1954;-77
2022/05/27 03:12:47;;;;;;;;;;;19.40;67.10;;;;;;5055640;28;1166;-77
2022/05/27 03:15:21;;;;;;;;;;;19.40;67.10;;;;;;5055396;28;1311;-76
2022/05/27 03:17:57;;;;;;;;;;;19.40;67.10;;;;;;5055778;28;1290;-73
2022/05/27 03:20:32;;;;;;;;;;;19.40;67.10;;;;;;5054553;28;1145;-76
2022/05/27 03:23:12;;;;;;;;;;;19.40;67.10;;;;;;5054536;28;1284;-76
2022/05/27 03:25:40;;;;;;;;;;;19.40;67.10;;;;;;5072615;28;1071;-75
2022/05/27 03:28:10;;;;;;;;;;;19.40;67.20;;;;;;5084065;28;1914;-76
2022/05/27 03:30:47;;;;;;;;;;;19.40;67.10;;;;;;5072354;28;1349;-77
2022/05/27 03:33:17;;;;;;;;;;;19.40;67.10;;;;;;5054407;28;1288;-77
2022/05/27 03:35:46;;;;;;;;;;;19.40;67.10;;;;;;5053729;28;1632;-75
2022/05/27 03:38:15;;;;;;;;;;;19.40;67.10;;;;;;5070735;28;1214;-77
2022/05/27 03:40:42;;;;;;;;;;;19.40;67.10;;;;;;5054333;28;1134;-77
2022/05/27 03:43:09;;;;;;;;;;;19.40;67.10;;;;;;5054727;28;1080;-77
2022/05/27 03:45:46;;;;;;;;;;;19.40;67.10;;;;;;5038753;28;1259;-77
2022/05/27 03:48:11;;;;;;;;;;;19.40;67.20;;;;;;5075990;28;1914;-77
2022/05/27 03:50:36;;;;;;;;;;;19.40;67.10;;;;;;5058114;28;1150;-77
2022/05/27 03:53:02;;;;;;;;;;;19.40;67.10;;;;;;5076238;28;1055;-77
2022/05/27 03:55:27;;;;;;;;;;;19.40;67.10;;;;;;5041699;28;1388;-76
2022/05/27 03:57:53;;;;;;;;;;;19.40;67.10;;;;;;5057967;28;1300;-77
2022/05/27 04:00:18;;;;;;;;;;;19.40;67.10;;;;;;5057721;28;1353;-77
2022/05/27 04:02:44;;;;;;;;;;;19.40;67.10;;;;;;5041402;28;1259;-76
2022/05/27 04:05:10;;;;;;;;;;;19.40;67.10;;;;;;5057926;28;1076;-76
2022/05/27 04:07:36;;;;;;;;;;;19.40;67.10;;;;;;5057942;28;1370;-77
2022/05/27 04:10:01;;;;;;;;;;;19.40;67.20;;;;;;5057521;28;1957;-75
2022/05/27 04:12:27;;;;;;;;;;;19.40;67.10;;;;;;5075797;28;1198;-76
2022/05/27 04:14:52;;;;;;;;;;;19.40;67.10;;;;;;5075438;28;1054;-75
2022/05/27 04:17:33;;;;;;;;;;;19.40;67.20;;;;;;5040333;28;2012;-76
2022/05/27 04:19:59;;;;;;;;;;;19.40;67.20;;;;;;5060050;28;1309;-77
2022/05/27 04:22:25;;;;;;;;;;;19.40;67.20;;;;;;5057748;28;1211;-75
2022/05/27 04:24:50;;;;;;;;;;;19.40;67.20;;;;;;5057524;28;1181;-75
2022/05/27 04:27:16;;;;;;;;;;;19.40;67.10;;;;;;5080339;28;1289;-75
2022/05/27 04:29:42;;;;;;;;;;;19.40;67.10;;;;;;5057065;28;1894;-76
2022/05/27 04:32:08;;;;;;;;;;;19.40;67.20;;;;;;5057187;28;1086;-75
2022/05/27 04:34:33;;;;;;;;;;;19.40;67.10;;;;;;5058530;28;1375;-75
2022/05/27 04:36:59;;;;;;;;;;;19.40;67.20;;;;;;5057305;28;1215;-75
2022/05/27 04:39:25;;;;;;;;;;;19.40;67.10;;;;;;5056980;28;1222;-76
2022/05/27 04:41:50;;;;;;;;;;;19.40;67.10;;;;;;5053606;28;1162;-74
2022/05/27 04:44:15;;;;;;;;;;;19.40;67.10;;;;;;5057009;28;1282;-75
2022/05/27 04:46:43;;;;;;;;;;;19.40;67.20;;;;;;5057003;28;1121;-75
2022/05/27 04:49:08;;;;;;;;;;;19.40;67.20;;;;;;5074426;28;1922;-74
2022/05/27 04:51:34;;;;;;;;;;;19.40;67.20;;;;;;5056810;28;1308;-74
2022/05/27 04:53:59;;;;;;;;;;;19.40;67.20;;;;;;5039157;28;1076;-75
2022/05/27 04:56:25;;;;;;;;;;;19.40;67.20;;;;;;5056762;28;1323;-74
2022/05/27 04:58:50;;;;;;;;;;;19.40;67.20;;;;;;5056684;28;1284;-74
2022/05/27 05:01:16;;;;;;;;;;;19.40;67.20;;;;;;5074516;28;1111;-74
2022/05/27 05:03:41;;;;;;;;;;;19.40;67.20;;;;;;5074725;28;1134;-74
2022/05/27 05:06:07;;;;;;;;;;;19.40;67.20;;;;;;5056794;28;1071;-74
2022/05/27 05:08:38;;;;;;;;;;;19.40;67.20;;;;;;5056446;28;1962;-74
2022/05/27 05:11:04;;;;;;;;;;;19.40;67.20;;;;;;5056329;28;1354;-73
2022/05/27 05:13:33;;;;;;;;;;;19.40;67.20;;;;;;5056451;28;1183;-74
2022/05/27 05:15:58;;;;;;;;;;;19.40;67.20;;;;;;5039918;28;1223;-76
2022/05/27 05:18:24;;;;;;;;;;;19.40;67.20;;;;;;5059152;28;1217;-75
2022/05/27 05:20:49;;;;;;;;;;;19.40;67.20;;;;;;5053080;28;1083;-75
2022/05/27 05:23:14;;;;;;;;;;;19.40;67.20;;;;;;5056495;28;1119;-75
2022/05/27 05:25:40;;;;;;;;;;;19.40;67.20;;;;;;5056199;28;1080;-75
2022/05/27 05:28:05;;;;;;;;;;;19.40;67.20;;;;;;5067287;28;1901;-76
2022/05/27 05:30:31;;;;;;;;;;;19.40;67.30;;;;;;5035376;28;1616;-77
2022/05/27 05:32:56;;;;;;;;;;;19.40;67.20;;;;;;5072341;28;2004;-74
2022/05/27 05:35:22;;;;;;;;;;;19.40;67.20;;;;;;5073633;28;1389;-74
2022/05/27 05:37:47;;;;;;;;;;;19.40;67.20;;;;;;5055990;28;1272;-74
2022/05/27 05:40:13;;;;;;;;;;;19.40;67.20;;;;;;5055563;28;1291;-74
2022/05/27 05:42:38;;;;;;;;;;;19.40;67.20;;;;;;5074184;28;1165;-74
2022/05/27 05:45:04;;;;;;;;;;;19.40;67.20;;;;;;5073770;28;1074;-72
2022/05/27 05:47:30;;;;;;;;;;;19.40;67.20;;;;;;5056141;28;1268;-72
2022/05/27 05:49:55;;;;;;;;;;;19.40;67.20;;;;;;5073358;28;1914;-71
2022/05/27 05:52:20;;;;;;;;;;;19.40;67.20;;;;;;5055718;28;1294;-73
2022/05/27 05:54:46;;;;;;;;;;;19.40;67.20;;;;;;5055205;28;1310;-76
2022/05/27 05:57:11;;;;;;;;;;;19.40;67.20;;;;;;5055885;28;1115;-75
2022/05/27 05:59:38;;;;;;;;;;;19.40;67.20;;;;;;5055427;28;1297;-72
2022/05/27 06:02:03;;;;;;;;;;;19.40;67.20;;;;;;5055129;28;1198;-72
2022/05/27 06:04:29;;;;;;;;;;;19.40;67.20;;;;;;5055512;28;1282;-71
2022/05/27 06:06:54;;;;;;;;;;;19.40;67.20;;;;;;5053126;28;1731;-72
2022/05/27 06:09:25;;;;;;;;;;;19.40;67.20;;;;;;5038601;28;1902;-70
2022/05/27 06:11:54;;;;;;;;;;;19.40;67.20;;;;;;5073538;28;856;-72
2022/05/27 06:14:19;;;;;;;;;;;19.40;67.20;;;;;;5055621;28;1115;-72
2022/05/27 06:16:45;;;;;;;;;;;19.40;67.20;;;;;;5055330;28;1134;-71
2022/05/27 06:19:10;;;;;;;;;;;19.40;67.20;;;;;;5076314;28;1181;-70
2022/05/27 06:21:36;;;;;;;;;;;19.40;67.20;;;;;;5072900;28;1110;-71
2022/05/27 06:24:01;;;;;;;;;;;19.40;67.20;;;;;;5055145;28;1067;-71
2022/05/27 06:26:26;;;;;;;;;;;19.40;67.20;;;;;;5063055;28;1050;-72
2022/05/27 06:34:23;;;;;;;;;;;19.40;67.20;;;;;;5055132;28;2491;-76
2022/05/27 06:36:49;;;;;;;;;;;19.40;67.20;;;;;;5055346;28;1111;-74
2022/05/27 06:39:15;;;;;;;;;;;19.40;67.20;;;;;;5054939;28;1358;-74
2022/05/27 06:41:40;;;;;;;;;;;19.40;67.20;;;;;;5072567;28;1126;-72
2022/05/27 06:44:06;;;;;;;;;;;19.40;67.30;;;;;;5072764;28;1365;-76
2022/05/27 06:46:31;;;;;;;;;;;19.40;67.20;;;;;;5038175;28;1175;-74
2022/05/27 06:48:56;;;;;;;;;;;19.40;67.20;;;;;;5052727;28;1921;-75
2022/05/27 06:51:22;;;;;;;;;;;19.40;67.30;;;;;;5054379;28;1099;-72
2022/05/27 06:53:47;;;;;;;;;;;19.40;67.20;;;;;;5054401;28;1079;-75
2022/05/27 06:56:13;;;;;;;;;;;19.40;67.20;;;;;;5053628;28;1051;-74
2022/05/27 06:58:40;;;;;;;;;;;19.40;67.20;;;;;;5054184;28;1324;-75
2022/05/27 07:01:06;;;;;;;;;;;19.40;67.20;;;;;;5054550;28;1219;-73
2022/05/27 07:03:32;;;;;;;;;;;19.40;67.20;;;;;;5072414;28;1085;-74
2022/05/27 07:05:57;;;;;;;;;;;19.40;67.20;;;;;;5072732;28;1245;-74
2022/05/27 07:08:22;;;;;;;;;;;19.40;67.20;;;;;;5072419;28;1965;-74
2022/05/27 07:10:48;;;;;;;;;;;19.40;67.20;;;;;;5072341;28;1127;-75
2022/05/27 07:13:14;;;;;;;;;;;19.40;67.20;;;;;;5054731;28;1083;-75
2022/05/27 07:15:40;;;;;;;;;;;19.40;67.20;;;;;;5054605;28;1255;-75
2022/05/27 07:18:08;;;;;;;;;;;19.40;67.30;;;;;;5057148;28;1351;-75
2022/05/27 07:20:34;;;;;;;;;;;19.40;67.20;;;;;;5038074;28;1172;-75
2022/05/27 07:23:00;;;;;;;;;;;19.40;67.20;;;;;;5071535;28;1103;-75
2022/05/27 07:25:25;;;;;;;;;;;19.40;67.20;;;;;;5076738;28;1123;-76
2022/05/27 07:27:51;;;;;;;;;;;19.40;67.20;;;;;;5069809;28;1406;-75
2022/05/27 07:30:16;;;;;;;;;;;19.40;67.30;;;;;;5076202;28;1894;-73
2022/05/27 07:32:42;;;;;;;;;;;19.40;67.20;;;;;;5058340;28;1134;-74
2022/05/27 07:35:08;;;;;;;;;;;19.40;67.30;;;;;;5058385;28;1586;-74
2022/05/27 07:37:34;;;;;;;;;;;19.40;67.30;;;;;;5057927;28;1813;-74
2022/05/27 07:39:59;;;;;;;;;;;19.40;67.30;;;;;;5058081;28;944;-74
2022/05/27 07:42:24;;;;;;;;;;;19.40;67.20;;;;;;5058110;28;1270;-74
2022/05/27 07:44:50;;;;;;;;;;;19.40;67.30;;;;;;5076138;28;1083;-74
2022/05/27 07:47:16;;;;;;;;;;;19.40;67.20;;;;;;5075882;28;1327;-74
2022/05/27 07:49:41;;;;;;;;;;;19.40;67.20;;;;;;5088054;22;3496;-67
2022/05/27 07:52:07;;;;;;;;;;;19.40;67.20;;;;;;5057496;28;1324;-68
2022/05/27 07:54:32;;;;;;;;;;;19.40;67.20;;;;;;5055209;28;2231;-67
2022/05/27 07:56:58;;;;;;;;;;;19.40;67.20;;;;;;5070900;28;1329;-68
2022/05/27 07:59:23;;;;;;;;;;;19.40;67.30;;;;;;5074116;28;1299;-68
2022/05/27 08:01:49;;;;;;;;;;;19.40;67.20;;;;;;5070287;28;1281;-67
2022/05/27 08:04:14;;;;;;;;;;;19.40;67.20;;;;;;5075680;28;1145;-70
2022/05/27 08:06:40;;;;;;;;;;;19.40;67.20;;;;;;5072073;28;1892;-69
2022/05/27 08:09:05;;;;;;;;;;;19.40;67.20;;;;;;5068469;28;1902;-69
2022/05/27 08:11:31;;;;;;;;;;;19.40;67.20;;;;;;5068391;28;1258;-69
2022/05/27 08:13:56;;;;;;;;;;;19.40;67.20;;;;;;5062344;28;1356;-69
2022/05/27 08:16:22;;;;;;;;;;;19.40;67.30;;;;;;5075670;28;1274;-69
2022/05/27 08:18:47;;;;;;;;;;;19.40;67.30;;;;;;5075195;28;1357;-69
2022/05/27 08:21:12;;;;;;;;;;;19.40;67.30;;;;;;5075302;28;1238;-70
2022/05/27 08:23:38;;;;;;;;;;;19.40;67.30;;;;;;5075590;28;1270;-69
2022/05/27 08:26:03;;;;;;;;;;;19.40;67.20;;;;;;5075334;28;1309;-68
2022/05/27 08:28:29;;;;;;;;;;;19.40;67.20;;;;;;5074674;28;1976;-67
2022/05/27 08:30:55;;;;;;;;;;;19.40;67.20;;;;;;5074429;28;1355;-68
2022/05/27 08:33:22;;;;;;;;;;;19.40;67.20;;;;;;5075234;28;1002;-68
2022/05/27 08:38:32;;;;;;;;;;;19.40;67.30;;;;;;5075426;28;1254;-67
2022/05/27 08:41:00;;;;;;;;;;;19.40;67.20;;;;;;5056743;28;1331;-68
2022/05/27 08:43:34;;;;;;;;;;;19.40;67.20;;;;;;5074913;28;1258;-66
2022/05/27 08:46:19;;;;;;;;;;;19.40;67.30;;;;;;5073709;28;1423;-68
2022/05/27 08:48:45;;;;;;;;;;;19.40;67.30;;;;;;5072741;28;1957;-68
2022/05/27 08:51:21;;;;;;;;;;;19.40;67.20;;;;;;5073488;28;1429;-67
2022/05/27 08:54:01;;;;;;;;;;;19.40;67.20;;;;;;5074791;28;1253;-67
2022/05/27 08:59:31;;;;;;;;;;;19.40;67.30;;;;;;5074681;28;1397;-68
2022/05/27 09:01:59;;;;;;;;;;;19.40;67.20;;;;;;5073435;28;1292;-68
2022/05/27 09:04:33;;;;;;;;;;;19.40;67.20;;;;;;5073247;28;1323;-70
2022/05/27 09:07:22;;;;;;;;;;;19.40;67.30;;;;;;5073670;28;1334;-70
2022/05/27 09:09:47;;;;;;;;;;;19.40;67.30;;;;;;5073057;28;1979;-67
2022/05/27 09:12:20;;;;;;;;;;;19.40;67.20;;;;;;5067219;28;1337;-69
2022/05/27 09:14:46;;;;;;;;;;;19.40;67.30;;;;;;5066715;28;1353;-69
2022/05/27 09:17:14;;;;;;;;;;;19.40;67.20;;;;;;5073523;28;1271;-69
2022/05/27 09:19:48;;;;;;;;;;;19.40;67.30;;;;;;5072855;28;1375;-69
2022/05/27 09:22:26;;;;;;;;;;;19.40;67.20;;;;;;5073053;28;1266;-69
2022/05/27 09:25:10;;;;;;;;;;;19.40;67.20;;;;;;5073011;28;1310;-69
2022/05/27 09:27:54;;;;;;;;;;;19.40;67.30;;;;;;5074224;28;1274;-69
2022/05/27 09:30:20;;;;;;;;;;;19.40;67.30;;;;;;5062161;28;1898;-69
2022/05/27 09:32:50;;;;;;;;;;;19.40;67.30;;;;;;5073243;28;1266;-69
2022/05/27 09:35:17;;;;;;;;;;;19.40;67.30;;;;;;5072755;28;1600;-69
2022/05/27 09:37:44;;;;;;;;;;;19.40;67.30;;;;;;5073797;28;1280;-69
2022/05/27 09:40:12;;;;;;;;;;;19.40;67.30;;;;;;5072423;28;1265;-68
2022/05/27 09:42:38;;;;;;;;;;;19.40;67.30;;;;;;5072042;28;1410;-69
2022/05/27 09:45:04;;;;;;;;;;;19.40;67.30;;;;;;5073804;28;1360;-69
2022/05/27 09:47:33;;;;;;;;;;;19.40;67.30;;;;;;5072798;28;1353;-69
2022/05/27 09:50:00;;;;;;;;;;;19.40;67.30;;;;;;5071960;28;1898;-69
2022/05/27 09:52:25;;;;;;;;;;;19.40;67.30;;;;;;5072284;28;1308;-69
2022/05/27 09:54:52;;;;;;;;;;;19.40;67.30;;;;;;5073581;28;1105;-69
2022/05/27 09:57:23;;;;;;;;;;;19.40;67.30;;;;;;5072466;28;1364;-68
2022/05/27 09:59:54;;;;;;;;;;;19.40;67.30;;;;;;5072203;28;1310;-68
2022/05/27 10:02:35;;;;;;;;;;;19.40;67.30;;;;;;5069149;28;1195;-69
2022/05/27 10:05:06;;;;;;;;;;;19.40;67.30;;;;;;5065994;28;1238;-69
2022/05/27 10:07:38;;;;;;;;;;;19.40;67.30;;;;;;5073455;28;1296;-69
2022/05/27 10:10:22;;;;;;;;;;;19.40;67.30;;;;;;5072974;28;1910;-69
2022/05/27 10:12:48;;;;;;;;;;;19.40;67.30;;;;;;5072060;28;1399;-69
2022/05/27 10:15:23;;;;;;;;;;;19.40;67.30;;;;;;5073070;28;1304;-69
2022/05/27 10:17:49;;;;;;;;;;;19.40;67.30;;;;;;5069265;28;2168;-69
2022/05/27 10:20:19;;;;;;;;;;;19.40;67.30;;;;;;5063339;28;1435;-69
2022/05/27 10:22:55;;;;;;;;;;;19.40;67.30;;;;;;5064289;28;1925;-70
2022/05/27 10:25:24;;;;;;;;;;;19.40;67.30;;;;;;5070260;28;1353;-69
2022/05/27 10:27:52;;;;;;;;;;;19.40;68.10;;;;;;5057861;28;1295;-69
2022/05/27 10:30:22;;;;;;;;;;;19.40;67.30;;;;;;5071466;28;1959;-70
2022/05/27 10:32:47;;;;;;;;;;;19.40;67.30;;;;;;5073005;28;1332;-69
2022/05/27 10:35:16;;;;;;;;;;;19.40;67.30;;;;;;5086626;28;1670;-69
2022/05/27 10:37:50;;;;;;;;;;;19.40;67.30;;;;;;5073442;28;1241;-69
2022/05/27 10:40:31;;;;;;;;;;;19.40;67.30;;;;;;5072407;28;1313;-69
2022/05/27 10:43:01;;;;;;;;;;;19.40;67.30;;;;;;5088451;28;1289;-69
2022/05/27 10:45:29;;;;;;;;;;;19.40;67.30;;;;;;5070783;28;1771;-70
2022/05/27 10:48:13;;;;;;;;;;;19.40;67.30;;;;;;5067702;28;1819;-69
2022/05/27 10:50:53;;;;;;;;;;;19.40;67.30;;;;;;5064002;28;1228;-70
2022/05/27 10:53:37;;;;;;;;;;;19.40;67.30;;;;;;5069525;28;1271;-69
2022/05/27 10:56:06;;;;;;;;;;;19.40;67.30;;;;;;5072364;28;1141;-70
2022/05/27 11:04:20;;;;;;;;;;;19.40;67.30;;;;;;5071605;28;1315;-69
2022/05/27 11:06:46;;;;;;;;;;;19.40;67.30;;;;;;5071118;28;1291;-68
2022/05/27 11:09:24;;;;;;;;;;;19.40;67.30;;;;;;5072426;28;1950;-69
2022/05/27 11:12:05;;;;;;;;;;;19.40;67.30;;;;;;5071015;28;1318;-68
2022/05/27 11:17:53;;;;;;;;;;;19.40;67.30;;;;;;5072708;28;1405;-69
2022/05/27 11:20:33;;;;;;;;;;;19.40;67.30;;;;;;5070333;28;1326;-68
2022/05/27 11:23:28;;;;;;;;;;;19.40;67.30;;;;;;5071275;28;1344;-68
2022/05/27 11:26:00;;;;;;;;;;;19.40;67.30;;;;;;5035023;28;1378;-69
2022/05/27 11:28:34;;;;;;;;;;;19.40;67.30;;;;;;5064632;28;1906;-68
2022/05/27 11:31:03;;;;;;;;;;;19.40;67.30;;;;;;5062327;28;1284;-69
2022/05/27 11:33:39;;;;;;;;;;;19.40;67.30;;;;;;5071098;28;1245;-70
2022/05/27 11:36:27;;;;;;;;;;;19.40;67.30;;;;;;5062195;28;1730;-70
2022/05/27 11:39:05;;;;;;;;;;;19.40;67.30;;;;;;5061873;28;1283;-71
2022/05/27 11:41:34;;;;;;;;;;;19.40;67.30;;;;;;5069990;28;1171;-72
2022/05/27 11:44:03;;;;;;;;;;;19.40;67.30;;;;;;5069899;28;1337;-71
2022/05/27 11:46:35;;;;;;;;;;;19.40;67.30;;;;;;5070874;28;1266;-71
2022/05/27 11:49:13;;;;;;;;;;;19.40;67.30;;;;;;5070046;28;2282;-72
2022/05/27 11:51:42;;;;;;;;;;;19.40;67.30;;;;;;5069044;28;1234;-72
2022/05/27 11:54:11;;;;;;;;;;;19.40;67.30;;;;;;5049747;28;1326;-71
2022/05/27 11:56:42;;;;;;;;;;;19.40;67.30;;;;;;5062059;28;1333;-71
2022/05/27 11:59:26;;;;;;;;;;;19.40;67.30;;;;;;5059189;28;1361;-71
2022/05/27 12:01:56;;;;;;;;;;;19.40;67.50;;;;;;5055835;28;1262;-71
2022/05/27 12:04:34;;;;;;;;;;;19.40;67.30;;;;;;5068687;28;2164;-71
2022/05/27 12:07:10;;;;;;;;;;;19.40;67.30;;;;;;5063810;28;1296;-71
2022/05/27 12:09:36;;;;;;;;;;;19.40;67.30;;;;;;5074220;28;1894;-70
2022/05/27 12:12:05;;;;;;;;;;;19.40;67.30;;;;;;5073828;28;1389;-72
2022/05/27 12:14:38;;;;;;;;;;;19.40;67.30;;;;;;5074609;28;1312;-72
2022/05/27 12:17:05;;;;;;;;;;;19.40;67.30;;;;;;5074279;28;1384;-71
2022/05/27 12:19:34;;;;;;;;;;;19.40;67.30;;;;;;5071212;28;1270;-70
2022/05/27 12:22:02;;;;;;;;;;;19.40;67.30;;;;;;5073907;28;1255;-71
2022/05/27 12:24:29;;;;;;;;;;;19.40;67.30;;;;;;5075739;28;1366;-71
2022/05/27 12:26:55;;;;;;;;;;;19.40;67.40;;;;;;5073176;28;2123;-69
2022/05/27 12:29:21;;;;;;;;;;;19.40;67.30;;;;;;5069810;28;1889;-69
2022/05/27 12:31:47;;;;;;;;;;;19.40;67.30;;;;;;5073620;28;1086;-70
2022/05/27 12:34:27;;;;;;;;;;;19.40;67.40;;;;;;5072325;28;1347;-72
2022/05/27 12:36:53;;;;;;;;;;;19.40;67.30;;;;;;5074935;28;1325;-71
2022/05/27 12:39:23;;;;;;;;;;;19.40;67.30;;;;;;5073753;28;1393;-70
2022/05/27 12:41:48;;;;;;;;;;;19.40;67.30;;;;;;5073558;28;1321;-69
2022/05/27 12:44:19;;;;;;;;;;;19.40;67.30;;;;;;5075450;28;1649;-69
2022/05/27 12:46:45;;;;;;;;;;;19.40;67.30;;;;;;5073659;28;1262;-70
2022/05/27 12:49:27;;;;;;;;;;;19.40;67.30;;;;;;5074613;28;1906;-70
2022/05/27 12:51:53;;;;;;;;;;;19.40;67.40;;;;;;5072301;28;1375;-70
2022/05/27 12:54:37;;;;;;;;;;;19.40;67.30;;;;;;5073702;28;1322;-70
2022/05/27 13:02:51;;;;;;;;;;;19.40;67.30;;;;;;5073911;28;1106;-69
2022/05/27 13:05:17;;;;;;;;;;;19.40;67.30;;;;;;5073456;28;1410;-69
2022/05/27 13:07:43;;;;;;;;;;;19.40;67.30;;;;;;5073526;28;1218;-69
2022/05/27 13:10:18;;;;;;;;;;;19.40;67.30;;;;;;5072716;28;1953;-70
2022/05/27 13:12:48;;;;;;;;;;;19.40;67.30;;;;;;5073325;28;1127;-70
2022/05/27 13:15:20;;;;;;;;;;;19.40;67.30;;;;;;5073282;28;1139;-70
2022/05/27 13:17:46;;;;;;;;;;;19.40;67.40;;;;;;5073360;28;1254;-69
2022/05/27 13:20:22;;;;;;;;;;;19.40;67.30;;;;;;5072777;28;1409;-70
2022/05/27 13:22:58;;;;;;;;;;;19.40;67.40;;;;;;5073055;28;1300;-69
2022/05/27 13:25:30;;;;;;;;;;;19.40;67.30;;;;;;5073082;28;1265;-71
2022/05/27 13:27:56;;;;;;;;;;;19.40;67.30;;;;;;5072921;28;1317;-70
2022/05/27 13:30:45;;;;;;;;;;;19.40;67.30;;;;;;5072646;28;1898;-70
2022/05/27 13:33:10;;;;;;;;;;;19.40;67.30;;;;;;5073897;28;1351;-70
2022/05/27 13:35:37;;;;;;;;;;;19.40;67.30;;;;;;5070956;28;1661;-70
2022/05/27 13:38:02;;;;;;;;;;;19.40;67.30;;;;;;5072941;28;1408;-70
2022/05/27 13:40:29;;;;;;;;;;;19.40;67.30;;;;;;5072412;28;1290;-70
2022/05/27 13:42:56;;;;;;;;;;;19.40;67.30;;;;;;5072830;28;1356;-71
2022/05/27 13:45:21;;;;;;;;;;;19.40;67.30;;;;;;5072493;28;1312;-70
2022/05/27 13:47:51;;;;;;;;;;;19.40;67.30;;;;;;5072274;28;2048;-70
2022/05/27 13:50:27;;;;;;;;;;;19.40;67.40;;;;;;5068016;28;1969;-71
2022/05/27 13:52:52;;;;;;;;;;;19.40;67.40;;;;;;5061153;28;1261;-71
2022/05/27 13:55:18;;;;;;;;;;;19.40;67.70;;;;;;5073775;28;1327;-71
2022/05/27 13:57:44;;;;;;;;;;;19.40;67.40;;;;;;5072494;28;1550;-71
2022/05/27 14:00:09;;;;;;;;;;;19.40;67.40;;;;;;5072962;28;1203;-71
2022/05/27 14:02:36;;;;;;;;;;;19.40;67.40;;;;;;5072102;28;1322;-71
2022/05/27 14:05:04;;;;;;;;;;;19.40;67.30;;;;;;5071179;28;1858;-70
2022/05/27 14:07:30;;;;;;;;;;;19.40;67.30;;;;;;5061625;28;1080;-71
2022/05/27 14:09:57;;;;;;;;;;;19.40;67.30;;;;;;5071306;28;1977;-70
2022/05/27 14:12:22;;;;;;;;;;;19.40;67.40;;;;;;5073283;28;1134;-71
2022/05/27 14:14:51;;;;;;;;;;;19.40;67.40;;;;;;5072938;28;1305;-71
2022/05/27 14:17:17;;;;;;;;;;;19.40;67.40;;;;;;5072183;28;1264;-71
2022/05/27 14:19:44;;;;;;;;;;;19.40;67.30;;;;;;5071809;28;1363;-71
2022/05/27 14:22:42;;;;;;;;;;;19.40;67.40;;;;;;5071834;28;1377;-71
2022/05/27 14:25:20;;;;;;;;;;;19.40;67.30;;;;;;5071926;28;1331;-70
2022/05/27 14:27:52;;;;;;;;;;;19.40;67.40;;;;;;5072867;28;1261;-70
2022/05/27 14:30:34;;;;;;;;;;;19.40;67.40;;;;;;5058634;28;1906;-71
2022/05/27 14:33:00;;;;;;;;;;;19.40;67.40;;;;;;5073080;28;1346;-71
2022/05/27 14:35:25;;;;;;;;;;;19.40;67.20;;;;;;5068703;28;1589;-72
2022/05/27 14:38:04;;;;;;;;;;;19.40;66.70;;;;;;5071638;28;1325;-72
2022/05/27 14:40:45;;;;;;;;;;;19.40;66.70;;;;;;5071308;28;1358;-72
2022/05/27 14:43:29;;;;;;;;;;;19.50;67.80;;;;;;5071856;28;1325;-71
2022/05/27 14:45:54;;;;;;;;;;;19.40;69.10;;;;;;5072653;28;1304;-71
2022/05/27 14:48:23;;;;;;;;;;;19.50;68.90;;;;;;5072581;28;1961;-71
2022/05/27 14:50:48;;;;;;;;;;;19.50;68.50;;;;;;5072361;28;1302;-71
2022/05/27 14:53:15;;;;;;;;;;;19.50;68.20;;;;;;5073010;28;1380;-71
2022/05/27 14:55:40;;;;;;;;;;;19.50;68.00;;;;;;5071463;28;1294;-71
2022/05/27 14:58:07;;;;;;;;;;;19.50;68.70;;;;;;5072851;28;1295;-70
2022/05/27 15:00:35;;;;;;;;;;;19.50;67.90;;;;;;5070833;28;1288;-71
2022/05/27 15:03:01;;;;;;;;;;;19.50;67.90;;;;;;5071850;28;1270;-71
2022/05/27 15:05:28;;;;;;;;;;;19.50;67.90;;;;;;5071368;28;1347;-71
2022/05/27 15:07:59;;;;;;;;;;;19.50;68.00;;;;;;5072821;28;1332;-71
2022/05/27 15:10:27;;;;;;;;;;;19.50;68.00;;;;;;5070903;28;1898;-71